Time;durP1;ratioP1;P1;durP2;ratioP2;P2;SDS_P1;SDS_P2;PMS_P1;PMS_P2;Temp;Humidity;BMP_temperature;BMP_pressure;BME280_temperature;BME280_humidity;BME280_pressure;Samples;Min_cycle;Max_cycle;Signal;HPM_P1;HPM_P2
2023/04/09 00:00:15;;;;;;;4.88;3.72;;;19.50;63.60;;;;;;5012816;28;20053;-69
2023/04/09 00:02:42;;;;;;;5.15;4.25;;;19.40;63.60;;;;;;5012796;28;20045;-68
2023/04/09 00:05:09;;;;;;;4.75;2.90;;;19.40;63.60;;;;;;5011978;28;20050;-69
2023/04/09 00:07:36;;;;;;;4.20;2.75;;;19.40;63.60;;;;;;5011261;28;20061;-69
2023/04/09 00:10:05;;;;;;;5.18;3.05;;;19.30;63.60;;;;;;5011538;28;20488;-69
2023/04/09 00:12:32;;;;;;;4.50;3.03;;;19.30;63.70;;;;;;5011214;28;20415;-69
2023/04/09 00:14:59;;;;;;;4.07;2.53;;;19.30;63.70;;;;;;5012654;28;20052;-68
2023/04/09 00:17:26;;;;;;;6.38;4.10;;;19.30;63.70;;;;;;5012281;28;20510;-69
2023/04/09 00:19:53;;;;;;;5.35;3.25;;;19.30;63.80;;;;;;5012307;28;20511;-69
2023/04/09 00:22:20;;;;;;;6.60;3.25;;;19.20;63.80;;;;;;5003158;28;20056;-69
2023/04/09 00:24:47;;;;;;;5.40;3.28;;;19.20;63.80;;;;;;5011819;28;20053;-69
2023/04/09 00:27:15;;;;;;;4.60;3.13;;;19.20;63.80;;;;;;5011540;28;20050;-69
2023/04/09 00:29:42;;;;;;;5.00;3.08;;;19.20;63.90;;;;;;5010983;28;20061;-69
2023/04/09 00:32:09;;;;;;;4.95;3.78;;;19.20;63.90;;;;;;5010906;28;20061;-69
2023/04/09 00:34:37;;;;;;;5.13;4.07;;;19.10;63.80;;;;;;5010802;28;20053;-69
2023/04/09 00:37:04;;;;;;;4.80;3.10;;;19.10;63.90;;;;;;5010898;28;20065;-69
2023/04/09 00:39:31;;;;;;;5.25;3.05;;;19.20;64.00;;;;;;5011924;28;20058;-69
2023/04/09 00:42:01;;;;;;;4.75;3.10;;;19.10;63.90;;;;;;5012178;28;20049;-69
2023/04/09 00:44:29;;;;;;;4.63;2.83;;;19.10;63.90;;;;;;5012197;28;20054;-69
2023/04/09 00:46:58;;;;;;;6.82;3.08;;;19.10;64.00;;;;;;5010685;28;20526;-69
2023/04/09 00:49:25;;;;;;;4.72;3.08;;;19.10;64.00;;;;;;5011712;28;20436;-69
2023/04/09 00:51:53;;;;;;;5.90;4.65;;;19.10;64.20;;;;;;5010696;28;20407;-69
2023/04/09 00:54:20;;;;;;;5.43;3.33;;;19.00;63.90;;;;;;5010167;28;20137;-67
2023/04/09 00:56:47;;;;;;;5.43;3.33;;;19.00;64.00;;;;;;5011398;28;20054;-67
2023/04/09 00:59:14;;;;;;;5.07;3.15;;;19.00;64.00;;;;;;5010315;28;20057;-67
2023/04/09 01:01:43;;;;;;;5.30;3.30;;;19.00;64.00;;;;;;5010405;28;20054;-67
2023/04/09 01:04:10;;;;;;;4.53;2.90;;;19.00;64.00;;;;;;5011717;28;20049;-67
2023/04/09 01:06:45;;;;;;;4.47;2.78;;;19.00;64.10;;;;;;5011419;28;20050;-67
2023/04/09 01:09:18;;;;;;;4.57;2.97;;;19.00;64.10;;;;;;5011429;28;20053;-67
2023/04/09 01:11:56;;;;;;;4.70;2.88;;;18.90;64.10;;;;;;5011774;28;20053;-67
2023/04/09 01:14:29;;;;;;;5.90;4.63;;;18.90;64.10;;;;;;5010982;28;20074;-67
2023/04/09 01:17:03;;;;;;;5.47;4.00;;;18.90;64.10;;;;;;5010052;28;20511;-67
2023/04/09 01:19:41;;;;;;;5.03;3.20;;;18.90;64.20;;;;;;5007527;28;20049;-66
2023/04/09 01:22:22;;;;;;;5.57;2.75;;;18.90;64.10;;;;;;4991492;28;20390;-67
2023/04/09 01:25:02;;;;;;;5.43;2.88;;;18.90;64.10;;;;;;5009619;28;20041;-67
2023/04/09 01:27:39;;;;;;;5.28;4.07;;;18.90;64.10;;;;;;5010173;28;20056;-67
2023/04/09 01:30:10;;;;;;;4.47;2.70;;;18.90;64.10;;;;;;5009615;28;20058;-67
2023/04/09 01:32:39;;;;;;;4.78;2.83;;;19.00;64.00;;;;;;5011081;28;20061;-67
2023/04/09 01:35:08;;;;;;;4.93;3.22;;;19.00;64.00;;;;;;5010884;28;20383;-67
2023/04/09 01:37:36;;;;;;;4.53;3.67;;;19.10;63.90;;;;;;5009313;28;20054;-66
2023/04/09 01:40:04;;;;;;;5.60;4.72;;;19.10;63.90;;;;;;5010333;28;20053;-67
2023/04/09 01:42:32;;;;;;;4.90;2.70;;;19.20;63.80;;;;;;5010859;28;20100;-67
2023/04/09 01:45:00;;;;;;;4.35;2.90;;;19.30;63.80;;;;;;5010293;28;20050;-69
2023/04/09 01:47:29;;;;;;;4.85;2.65;;;19.30;63.60;;;;;;5009390;28;20061;-69
2023/04/09 01:49:57;;;;;;;5.13;3.05;;;19.40;63.60;;;;;;5010903;28;20069;-69
2023/04/09 01:52:24;;;;;;;3.65;2.53;;;19.50;63.50;;;;;;5010241;28;20050;-68
2023/04/09 01:54:51;;;;;;;5.15;3.83;;;19.60;63.40;;;;;;5008974;28;20058;-69
2023/04/09 01:57:18;;;;;;;5.20;3.88;;;19.60;63.30;;;;;;5009143;28;20057;-69
2023/04/09 01:59:45;;;;;;;4.05;2.63;;;19.70;63.20;;;;;;5010597;28;20074;-68
2023/04/09 02:02:18;;;;;;;4.30;2.55;;;19.70;63.70;;;;;;5010170;28;20049;-68
2023/04/09 02:04:49;;;;;;;4.20;2.58;;;19.80;63.10;;;;;;5010569;28;20053;-69
2023/04/09 02:07:24;;;;;;;5.10;3.95;;;19.80;63.10;;;;;;5008918;28;20053;-69
2023/04/09 02:09:53;;;;;;;3.72;2.42;;;19.80;63.00;;;;;;5010353;28;20053;-68
2023/04/09 02:12:21;;;;;;;5.05;2.90;;;19.80;63.00;;;;;;5010419;28;20058;-69
2023/04/09 02:14:52;;;;;;;4.63;2.72;;;19.80;63.00;;;;;;5010248;28;20054;-69
2023/04/09 02:17:19;;;;;;;4.40;2.83;;;19.80;63.00;;;;;;5009126;28;20426;-69
2023/04/09 02:19:48;;;;;;;4.38;3.72;;;19.80;63.10;;;;;;4992037;28;20458;-69
2023/04/09 02:22:16;;;;;;;4.07;2.65;;;19.70;63.10;;;;;;5002674;28;20058;-68
2023/04/09 02:24:43;;;;;;;4.20;2.17;;;19.70;63.10;;;;;;5009585;28;20054;-69
2023/04/09 02:27:10;;;;;;;4.38;2.92;;;19.70;63.10;;;;;;5008867;28;20484;-69
2023/04/09 02:29:37;;;;;;;4.30;2.30;;;19.70;63.70;;;;;;5008249;28;20054;-69
2023/04/09 02:32:04;;;;;;;4.40;2.83;;;19.60;63.20;;;;;;5009938;28;20050;-69
2023/04/09 02:34:31;;;;;;;4.75;2.70;;;19.60;63.20;;;;;;5009925;28;20046;-69
2023/04/09 02:36:59;;;;;;;4.63;3.28;;;19.60;63.30;;;;;;5008670;28;20077;-69
2023/04/09 02:39:26;;;;;;;5.00;2.78;;;19.60;63.30;;;;;;5009861;28;20069;-68
2023/04/09 02:41:53;;;;;;;4.15;2.55;;;19.60;63.30;;;;;;5008702;28;20390;-69
2023/04/09 02:44:20;;;;;;;4.22;2.80;;;19.60;63.40;;;;;;5008577;28;20054;-69
2023/04/09 02:46:48;;;;;;;3.72;2.63;;;19.50;63.30;;;;;;5009744;28;20050;-69
2023/04/09 02:49:15;;;;;;;5.28;3.13;;;19.50;63.40;;;;;;4998360;28;20054;-69
2023/04/09 02:51:42;;;;;;;4.57;2.90;;;19.50;63.40;;;;;;4989995;28;20053;-69
2023/04/09 02:54:10;;;;;;;5.28;3.05;;;19.50;63.50;;;;;;4989623;28;20416;-69
2023/04/09 02:56:37;;;;;;;4.80;3.20;;;19.40;63.50;;;;;;5005820;28;20507;-69
2023/04/09 02:59:04;;;;;;;5.38;3.80;;;19.40;63.50;;;;;;5009814;28;20057;-69
2023/04/09 03:01:31;;;;;;;4.80;2.85;;;19.40;63.60;;;;;;5009582;28;20046;-69
2023/04/09 03:03:58;;;;;;;5.10;3.20;;;19.40;63.60;;;;;;5008345;28;20058;-69
2023/04/09 03:06:25;;;;;;;4.88;3.95;;;19.40;63.60;;;;;;5009267;28;20062;-69
2023/04/09 03:08:52;;;;;;;4.45;3.05;;;19.30;63.60;;;;;;5009161;28;20463;-68
2023/04/09 03:11:20;;;;;;;5.65;4.70;;;19.30;63.60;;;;;;5009382;28;20046;-69
2023/04/09 03:13:47;;;;;;;4.70;3.30;;;19.30;63.60;;;;;;5007643;28;20481;-69
2023/04/09 03:16:14;;;;;;;4.38;2.72;;;19.20;63.60;;;;;;5009163;28;20104;-69
2023/04/09 03:18:41;;;;;;;4.80;3.78;;;19.20;63.70;;;;;;4988780;28;20493;-68
2023/04/09 03:21:09;;;;;;;5.10;3.95;;;19.20;63.70;;;;;;4989954;28;20060;-69
2023/04/09 03:23:36;;;;;;;4.90;2.92;;;19.20;63.70;;;;;;4997894;28;20054;-69
2023/04/09 03:26:03;;;;;;;4.75;3.00;;;19.20;63.80;;;;;;5009284;28;20072;-68
2023/04/09 03:28:32;;;;;;;4.55;2.85;;;19.10;63.70;;;;;;5009598;28;20518;-69
2023/04/09 03:30:59;;;;;;;5.15;3.28;;;19.10;63.70;;;;;;5007538;28;20058;-68
2023/04/09 03:33:26;;;;;;;5.75;3.25;;;19.10;63.80;;;;;;5008978;28;20490;-69
2023/04/09 03:35:53;;;;;;;4.38;3.00;;;19.10;63.80;;;;;;5009580;28;20053;-69
2023/04/09 03:38:20;;;;;;;4.13;2.55;;;19.10;63.80;;;;;;5009229;28;20050;-69
2023/04/09 03:40:47;;;;;;;5.03;3.28;;;19.10;64.50;;;;;;5010870;28;20057;-69
2023/04/09 03:43:14;;;;;;;5.05;3.28;;;19.00;63.90;;;;;;5012920;28;20046;-69
2023/04/09 03:45:42;;;;;;;4.88;3.17;;;19.00;63.90;;;;;;5011502;28;20053;-69
2023/04/09 03:48:09;;;;;;;4.82;3.45;;;19.00;63.90;;;;;;5011658;28;20436;-69
2023/04/09 03:50:40;;;;;;;5.25;3.90;;;19.00;63.90;;;;;;5012875;28;20053;-69
2023/04/09 03:53:08;;;;;;;4.10;2.95;;;19.00;64.00;;;;;;5012849;28;20064;-69
2023/04/09 03:55:35;;;;;;;5.05;4.53;;;19.00;64.00;;;;;;5012249;28;20041;-69
2023/04/09 03:58:02;;;;;;;4.65;3.00;;;19.00;64.00;;;;;;5012708;28;20050;-69
2023/04/09 04:00:29;;;;;;;6.45;4.20;;;18.90;64.00;;;;;;5012472;28;20488;-69
2023/04/09 04:02:57;;;;;;;5.63;3.50;;;18.90;64.00;;;;;;5012351;28;20389;-69
2023/04/09 04:05:25;;;;;;;5.43;3.22;;;18.90;64.00;;;;;;5011999;28;20069;-69
2023/04/09 04:07:52;;;;;;;5.13;3.75;;;18.90;64.00;;;;;;5012454;28;20053;-69
2023/04/09 04:10:19;;;;;;;4.97;3.17;;;18.90;64.00;;;;;;5012085;28;20420;-69
2023/04/09 04:12:46;;;;;;;4.93;2.92;;;18.90;64.00;;;;;;5012294;28;20132;-69
2023/04/09 04:15:13;;;;;;;5.03;3.35;;;19.00;64.00;;;;;;5007313;28;20417;-69
2023/04/09 04:17:40;;;;;;;4.15;2.72;;;19.00;64.00;;;;;;4991637;28;20054;-69
2023/04/09 04:20:09;;;;;;;6.18;3.20;;;19.00;63.90;;;;;;4996027;28;20054;-69
2023/04/09 04:22:36;;;;;;;4.90;2.80;;;19.10;63.90;;;;;;5011896;28;20054;-69
2023/04/09 04:25:04;;;;;;;5.32;3.15;;;19.10;63.90;;;;;;5011787;28;20045;-69
2023/04/09 04:27:31;;;;;;;4.63;2.80;;;19.10;63.80;;;;;;5012093;28;20054;-69
2023/04/09 04:29:59;;;;;;;4.93;3.15;;;19.20;63.70;;;;;;5010889;28;20427;-68
2023/04/09 04:32:26;;;;;;;4.90;3.17;;;19.30;63.70;;;;;;5010869;28;20137;-69
2023/04/09 04:34:53;;;;;;;4.65;2.80;;;19.30;63.50;;;;;;5011498;28;20493;-69
2023/04/09 04:37:22;;;;;;;5.05;3.10;;;19.40;63.40;;;;;;5011560;28;20061;-69
2023/04/09 04:39:49;;;;;;;5.53;4.30;;;19.50;63.40;;;;;;5012008;28;20145;-66
2023/04/09 04:42:16;;;;;;;5.13;3.53;;;19.50;63.20;;;;;;5011976;28;20060;-67
2023/04/09 04:44:43;;;;;;;4.93;3.15;;;19.60;63.10;;;;;;5010563;28;20096;-67
2023/04/09 04:47:10;;;;;;;4.75;2.85;;;19.70;63.10;;;;;;5011811;28;20053;-67
2023/04/09 04:49:37;;;;;;;5.18;3.72;;;19.70;63.00;;;;;;5011510;28;20053;-67
2023/04/09 04:52:04;;;;;;;6.05;3.42;;;19.70;62.90;;;;;;5010872;28;20139;-67
2023/04/09 04:54:33;;;;;;;5.18;4.40;;;19.80;62.90;;;;;;5011060;28;20045;-66
2023/04/09 04:57:01;;;;;;;6.15;3.50;;;19.70;62.90;;;;;;5010199;28;20057;-67
2023/04/09 04:59:28;;;;;;;5.10;3.20;;;19.80;62.90;;;;;;5011366;28;20111;-67
2023/04/09 05:01:55;;;;;;;6.13;3.70;;;19.80;63.00;;;;;;5011131;28;20726;-67
2023/04/09 05:04:21;;;;;;;5.10;3.08;;;19.70;62.90;;;;;;5010353;28;20142;-67
2023/04/09 05:06:48;;;;;;;5.32;3.33;;;19.80;63.00;;;;;;5011095;28;20057;-67
2023/04/09 05:09:15;;;;;;;4.85;3.40;;;19.70;63.00;;;;;;5009916;28;20412;-67
2023/04/09 05:11:44;;;;;;;5.55;3.35;;;19.70;63.10;;;;;;5009859;28;20054;-67
2023/04/09 05:14:11;;;;;;;5.22;3.17;;;19.70;63.10;;;;;;5004234;28;20065;-69
2023/04/09 05:16:39;;;;;;;4.75;3.28;;;19.60;63.10;;;;;;4991442;28;20049;-69
2023/04/09 05:19:06;;;;;;;5.03;3.10;;;19.60;63.10;;;;;;4990378;28;20149;-69
2023/04/09 05:21:33;;;;;;;5.63;3.30;;;19.60;63.10;;;;;;4991478;28;20043;-69
2023/04/09 05:23:59;;;;;;;6.60;4.35;;;19.60;63.30;;;;;;5001393;28;20073;-69
2023/04/09 05:26:27;;;;;;;4.82;2.90;;;19.60;63.30;;;;;;5010089;28;20068;-69
2023/04/09 05:28:56;;;;;;;5.05;3.05;;;19.50;63.30;;;;;;5009577;28;20057;-68
2023/04/09 05:31:23;;;;;;;5.43;3.25;;;19.50;63.30;;;;;;5010834;28;20550;-68
2023/04/09 05:33:51;;;;;;;5.20;3.20;;;19.50;63.30;;;;;;5010818;28;20057;-69
2023/04/09 05:36:20;;;;;;;5.55;3.25;;;19.50;63.30;;;;;;5009120;28;20058;-69
2023/04/09 05:38:47;;;;;;;6.18;3.38;;;19.50;63.40;;;;;;5010907;28;20057;-69
2023/04/09 05:41:15;;;;;;;5.15;3.22;;;19.40;63.40;;;;;;5010351;28;20057;-69
2023/04/09 05:43:42;;;;;;;5.72;3.33;;;19.40;63.40;;;;;;5010922;28;20186;-69
2023/04/09 05:46:11;;;;;;;5.30;3.05;;;19.40;63.40;;;;;;5010619;28;20054;-68
2023/04/09 05:48:38;;;;;;;6.40;3.47;;;19.30;63.40;;;;;;5010992;28;20133;-69
2023/04/09 05:51:05;;;;;;;5.03;3.13;;;19.30;64.10;;;;;;4992432;28;20061;-68
2023/04/09 05:53:33;;;;;;;4.85;3.20;;;19.30;63.50;;;;;;4991114;28;20046;-68
2023/04/09 05:56:00;;;;;;;4.53;2.92;;;19.30;63.50;;;;;;4991123;28;20050;-68
2023/04/09 05:58:28;;;;;;;6.20;4.47;;;19.30;63.60;;;;;;4989350;28;20501;-69
2023/04/09 06:00:55;;;;;;;4.93;3.22;;;19.20;63.50;;;;;;4996541;28;20056;-69
2023/04/09 06:03:24;;;;;;;4.90;3.22;;;19.20;63.60;;;;;;5009223;28;20050;-69
2023/04/09 06:05:50;;;;;;;5.60;4.70;;;19.20;63.60;;;;;;5010602;28;20046;-69
2023/04/09 06:08:17;;;;;;;5.35;3.35;;;19.20;63.70;;;;;;5010183;28;20054;-68
2023/04/09 06:10:44;;;;;;;6.70;3.58;;;19.20;63.70;;;;;;5010289;28;20530;-67
2023/04/09 06:13:11;;;;;;;5.55;3.47;;;19.10;63.70;;;;;;5000062;28;20421;-67
2023/04/09 06:15:38;;;;;;;5.05;3.10;;;19.10;63.70;;;;;;4990580;28;20050;-66
2023/04/09 06:18:06;;;;;;;5.65;3.50;;;19.10;63.70;;;;;;4989109;28;20093;-67
2023/04/09 06:20:34;;;;;;;4.65;3.05;;;19.10;63.70;;;;;;5006392;28;20046;-67
2023/04/09 06:23:01;;;;;;;6.25;3.53;;;19.10;63.80;;;;;;5009685;28;20438;-67
2023/04/09 06:25:28;;;;;;;6.22;4.10;;;19.10;63.80;;;;;;5009804;28;20473;-66
2023/04/09 06:27:55;;;;;;;5.35;3.58;;;19.10;63.80;;;;;;5010037;28;20068;-69
2023/04/09 06:30:22;;;;;;;5.22;3.78;;;19.10;63.80;;;;;;5008567;28;20089;-69
2023/04/09 06:32:50;;;;;;;5.10;3.42;;;19.00;63.80;;;;;;5010043;28;20057;-69
2023/04/09 06:35:17;;;;;;;5.80;3.55;;;19.00;63.80;;;;;;5009924;28;20050;-69
2023/04/09 06:37:45;;;;;;;4.97;3.20;;;19.00;63.80;;;;;;5008383;28;20058;-67
2023/04/09 06:40:13;;;;;;;4.75;3.67;;;19.00;63.90;;;;;;5009562;28;20054;-67
2023/04/09 06:42:40;;;;;;;5.28;3.20;;;19.00;63.80;;;;;;5009947;28;20312;-66
2023/04/09 06:45:08;;;;;;;5.47;3.80;;;19.00;63.80;;;;;;5008913;28;20108;-67
2023/04/09 06:47:35;;;;;;;6.55;4.90;;;19.00;63.80;;;;;;5009821;28;20062;-67
2023/04/09 06:50:02;;;;;;;6.60;3.85;;;19.00;63.90;;;;;;5009691;28;20713;-66
2023/04/09 06:52:29;;;;;;;6.15;3.47;;;19.00;63.80;;;;;;5008181;28;20491;-67
2023/04/09 06:54:57;;;;;;;6.10;3.40;;;19.10;63.80;;;;;;5007681;28;20057;-67
2023/04/09 06:57:26;;;;;;;5.50;3.08;;;19.10;63.70;;;;;;5009526;28;20049;-67
2023/04/09 06:59:53;;;;;;;5.75;3.20;;;19.20;63.70;;;;;;5008234;28;20096;-66
2023/04/09 07:02:20;;;;;;;5.18;3.20;;;19.30;63.60;;;;;;5009162;28;20072;-67
2023/04/09 07:04:47;;;;;;;6.45;3.58;;;19.30;63.50;;;;;;5009393;28;20085;-67
2023/04/09 07:07:14;;;;;;;6.93;3.58;;;19.40;64.00;;;;;;5009001;28;20453;-67
2023/04/09 07:09:41;;;;;;;4.80;3.20;;;19.40;63.40;;;;;;5008616;28;20057;-67
2023/04/09 07:12:09;;;;;;;5.05;3.38;;;19.50;63.30;;;;;;4996873;28;20058;-66
2023/04/09 07:14:36;;;;;;;5.97;3.42;;;19.60;63.20;;;;;;4988864;28;20515;-67
2023/04/09 07:17:03;;;;;;;6.22;3.60;;;19.60;63.10;;;;;;4993550;28;20059;-67
2023/04/09 07:19:30;;;;;;;5.25;3.17;;;19.70;63.00;;;;;;4993588;28;20046;-66
2023/04/09 07:21:57;;;;;;;5.45;3.25;;;19.70;62.90;;;;;;4993593;28;20054;-67
2023/04/09 07:24:24;;;;;;;5.65;3.35;;;19.80;62.80;;;;;;5008388;28;20053;-67
2023/04/09 07:26:52;;;;;;;5.20;2.95;;;19.90;62.80;;;;;;5012994;28;20060;-67
2023/04/09 07:29:21;;;;;;;6.00;4.18;;;19.90;62.70;;;;;;5013101;28;20050;-67
2023/04/09 07:31:48;;;;;;;5.40;4.57;;;20.00;62.70;;;;;;5013242;28;20065;-67
2023/04/09 07:34:15;;;;;;;5.85;3.60;;;20.00;62.60;;;;;;5013281;28;20128;-67
2023/04/09 07:36:42;;;;;;;5.80;3.58;;;20.00;62.60;;;;;;5012994;28;20098;-67
2023/04/09 07:39:09;;;;;;;5.35;3.25;;;20.00;62.60;;;;;;5011096;28;20049;-67
2023/04/09 07:41:36;;;;;;;5.50;4.25;;;20.10;62.60;;;;;;5012854;28;20046;-67
2023/04/09 07:44:05;;;;;;;5.90;3.40;;;20.00;62.50;;;;;;5012407;28;20057;-67
2023/04/09 07:46:33;;;;;;;5.75;3.80;;;20.10;62.60;;;;;;5012449;28;20050;-67
2023/04/09 07:49:00;;;;;;;5.45;4.05;;;20.10;62.50;;;;;;5012516;28;20058;-67
2023/04/09 07:51:27;;;;;;;5.80;3.53;;;20.10;62.50;;;;;;5011289;28;20060;-67
2023/04/09 07:53:54;;;;;;;5.05;3.28;;;20.10;62.50;;;;;;5011983;28;20574;-67
2023/04/09 07:56:21;;;;;;;5.55;3.38;;;20.10;62.50;;;;;;5012579;28;20049;-67
2023/04/09 07:58:49;;;;;;;5.55;3.35;;;20.10;62.50;;;;;;5012774;28;20086;-67
2023/04/09 08:01:16;;;;;;;4.43;3.08;;;20.10;62.60;;;;;;5012467;28;20049;-67
2023/04/09 08:03:44;;;;;;;4.68;3.00;;;20.00;62.60;;;;;;5012925;28;20053;-66
2023/04/09 08:06:11;;;;;;;6.05;3.33;;;20.00;62.70;;;;;;5012110;28;20049;-67
2023/04/09 08:08:38;;;;;;;5.22;3.38;;;20.00;63.30;;;;;;5012289;28;20464;-67
2023/04/09 08:11:05;;;;;;;5.35;3.30;;;20.00;62.70;;;;;;4996457;28;20492;-66
2023/04/09 08:13:33;;;;;;;4.70;3.33;;;20.00;62.70;;;;;;4992672;28;20046;-67
2023/04/09 08:16:01;;;;;;;5.07;3.22;;;20.00;62.80;;;;;;4992428;28;20047;-67
2023/04/09 08:18:28;;;;;;;4.88;3.03;;;19.90;62.80;;;;;;4999746;28;20089;-66
2023/04/09 08:20:56;;;;;;;5.38;3.35;;;20.00;62.80;;;;;;5011158;28;20069;-66
2023/04/09 08:23:23;;;;;;;5.15;3.30;;;20.00;62.80;;;;;;5011959;28;20065;-66
2023/04/09 08:25:50;;;;;;;6.25;5.05;;;20.00;62.80;;;;;;5012007;28;20407;-66
2023/04/09 08:28:17;;;;;;;4.97;3.22;;;20.00;62.80;;;;;;5010846;28;20516;-67
2023/04/09 08:30:46;;;;;;;5.82;3.90;;;20.00;62.80;;;;;;5012108;28;20129;-66
2023/04/09 08:33:14;;;;;;;5.40;3.67;;;20.00;62.90;;;;;;5010385;28;20058;-69
2023/04/09 08:35:41;;;;;;;6.30;4.65;;;20.00;62.90;;;;;;5010289;28;20136;-66
2023/04/09 08:38:10;;;;;;;5.32;3.20;;;20.00;62.90;;;;;;5010882;28;20474;-67
2023/04/09 08:40:37;;;;;;;6.07;4.07;;;20.00;62.90;;;;;;5011482;28;20132;-67
2023/04/09 08:43:06;;;;;;;5.65;3.58;;;19.90;62.80;;;;;;5011800;28;20050;-67
2023/04/09 08:45:33;;;;;;;5.00;3.33;;;19.90;62.90;;;;;;5011451;28;20520;-66
2023/04/09 08:48:02;;;;;;;6.13;3.75;;;19.90;62.90;;;;;;5011674;28;20057;-66
2023/04/09 08:50:32;;;;;;;5.38;3.55;;;19.90;62.90;;;;;;5010279;28;20064;-67
2023/04/09 08:53:03;;;;;;;4.97;3.10;;;19.90;62.90;;;;;;5010281;28;20480;-67
2023/04/09 08:55:33;;;;;;;6.00;3.65;;;20.00;63.00;;;;;;4992022;28;20058;-67
2023/04/09 08:58:00;;;;;;;5.57;3.65;;;19.90;62.90;;;;;;4990804;28;20408;-67
2023/04/09 09:00:27;;;;;;;5.15;3.92;;;19.90;62.90;;;;;;4992719;28;20477;-67
2023/04/09 09:03:08;;;;;;;5.50;3.70;;;19.90;62.90;;;;;;5010102;28;20064;-67
2023/04/09 09:05:39;;;;;;;5.60;3.60;;;19.90;63.00;;;;;;4990053;28;20050;-67
2023/04/09 09:08:08;;;;;;;4.93;3.65;;;19.90;63.00;;;;;;4991261;28;20046;-67
2023/04/09 09:10:42;;;;;;;6.10;4.28;;;19.90;63.10;;;;;;5008001;28;20471;-67
2023/04/09 09:13:20;;;;;;;5.95;3.88;;;19.90;63.10;;;;;;5011054;28;20057;-68
2023/04/09 09:15:49;;;;;;;6.07;4.70;;;19.90;63.10;;;;;;5011226;28;20050;-67
2023/04/09 09:18:18;;;;;;;5.35;3.63;;;19.90;63.10;;;;;;5011336;28;20050;-67
2023/04/09 09:20:45;;;;;;;5.57;3.45;;;20.00;63.20;;;;;;5010907;28;20594;-67
2023/04/09 09:23:12;;;;;;;4.60;3.20;;;19.90;63.10;;;;;;5010942;28;20046;-67
2023/04/09 09:25:40;;;;;;;5.35;4.30;;;19.90;63.20;;;;;;5010436;28;20059;-67
2023/04/09 09:28:08;;;;;;;5.72;3.55;;;20.00;63.20;;;;;;4991343;28;20424;-67
2023/04/09 09:30:37;;;;;;;5.70;3.65;;;19.90;63.20;;;;;;4990125;28;20112;-67
2023/04/09 09:33:06;;;;;;;5.53;3.60;;;20.00;63.20;;;;;;4991656;28;20085;-67
2023/04/09 09:35:48;;;;;;;6.20;4.00;;;19.90;63.20;;;;;;4989525;28;20046;-67
2023/04/09 09:38:16;;;;;;;5.90;4.57;;;20.00;63.30;;;;;;4989911;28;20174;-68
2023/04/09 09:40:44;;;;;;;5.80;4.45;;;20.00;63.80;;;;;;4991169;28;20058;-67
2023/04/09 09:43:12;;;;;;;6.15;4.63;;;20.00;63.80;;;;;;4996059;28;20065;-67
2023/04/09 09:45:40;;;;;;;5.32;3.15;;;20.00;63.30;;;;;;5010956;28;20049;-67
2023/04/09 09:48:10;;;;;;;5.72;3.75;;;20.00;63.20;;;;;;5010443;28;20490;-67
2023/04/09 09:50:40;;;;;;;6.28;4.00;;;20.00;63.30;;;;;;5010731;28;20049;-67
2023/04/09 09:53:09;;;;;;;5.57;3.55;;;20.00;63.80;;;;;;5010400;28;20052;-67
2023/04/09 09:55:39;;;;;;;5.53;3.63;;;20.00;63.30;;;;;;5008753;28;20492;-67
2023/04/09 09:58:16;;;;;;;4.85;3.40;;;20.10;63.30;;;;;;5010324;28;20133;-67
2023/04/09 10:00:46;;;;;;;5.82;4.30;;;20.10;63.30;;;;;;5009858;28;20045;-67
2023/04/09 10:03:15;;;;;;;5.10;3.50;;;20.10;63.30;;;;;;5010811;28;20053;-67
2023/04/09 10:05:43;;;;;;;5.72;4.10;;;20.10;63.30;;;;;;5009036;28;20049;-67
2023/04/09 10:08:11;;;;;;;5.10;3.60;;;20.10;63.30;;;;;;4994010;28;20061;-67
2023/04/09 10:10:40;;;;;;;5.72;3.67;;;20.10;63.40;;;;;;4990588;28;20058;-67
2023/04/09 10:13:09;;;;;;;;;;;20.10;63.40;;;;;;4991045;28;20050;-67
2023/04/09 10:15:37;;;;;;;5.85;3.63;;;20.10;63.40;;;;;;4990745;28;20020;-67
2023/04/09 10:18:04;;;;;;;6.03;3.40;;;20.20;63.30;;;;;;5001363;28;20141;-67
2023/04/09 10:20:41;;;;;;;6.07;4.68;;;20.20;63.30;;;;;;5010010;28;20065;-67
2023/04/09 10:23:15;;;;;;;6.07;3.65;;;20.20;63.40;;;;;;5009879;28;20049;-68
2023/04/09 10:25:43;;;;;;;5.43;4.47;;;20.20;63.30;;;;;;5008505;28;20062;-68
2023/04/09 10:28:19;;;;;;;5.45;3.38;;;20.20;63.30;;;;;;5009842;28;20061;-67
2023/04/09 10:30:46;;;;;;;5.70;3.28;;;20.20;63.30;;;;;;5010122;28;20327;-67
2023/04/09 10:33:14;;;;;;;5.40;4.43;;;20.20;63.30;;;;;;5010037;28;20081;-68
2023/04/09 10:35:42;;;;;;;5.13;3.38;;;20.20;63.30;;;;;;5009430;28;20061;-67
2023/04/09 10:38:11;;;;;;;5.25;3.67;;;20.30;63.40;;;;;;5009957;28;20053;-67
2023/04/09 10:40:41;;;;;;;6.05;4.75;;;20.30;63.40;;;;;;5009574;28;20054;-67
2023/04/09 10:43:09;;;;;;;4.55;3.17;;;20.20;63.40;;;;;;5009858;28;20145;-67
2023/04/09 10:45:42;;;;;;;5.47;3.38;;;20.30;63.40;;;;;;5009648;28;20068;-67
2023/04/09 10:48:13;;;;;;;4.93;3.10;;;20.30;63.40;;;;;;5009704;28;20064;-68
2023/04/09 10:50:42;;;;;;;5.13;3.58;;;20.30;63.40;;;;;;5010215;28;20112;-68
2023/04/09 10:53:22;;;;;;;5.57;3.20;;;20.30;63.40;;;;;;5013586;28;20054;-68
2023/04/09 10:55:50;;;;;;;5.55;3.60;;;20.30;63.40;;;;;;5005586;28;20117;-67
2023/04/09 10:58:17;;;;;;;5.40;3.50;;;20.30;63.40;;;;;;4993832;28;20105;-67
2023/04/09 11:00:47;;;;;;;5.72;3.67;;;20.40;63.40;;;;;;4997508;28;20054;-67
2023/04/09 11:03:23;;;;;;;4.53;3.22;;;20.40;63.40;;;;;;5012229;28;20068;-67
2023/04/09 11:05:53;;;;;;;5.43;3.60;;;20.40;63.40;;;;;;5006020;28;20054;-67
2023/04/09 11:08:21;;;;;;;4.50;3.10;;;20.40;63.40;;;;;;5000371;28;20057;-67
2023/04/09 11:10:48;;;;;;;5.68;3.88;;;20.40;63.40;;;;;;5012210;28;20115;-67
2023/04/09 11:13:16;;;;;;;6.13;4.47;;;20.40;63.40;;;;;;5013591;28;20085;-67
2023/04/09 11:15:45;;;;;;;4.85;3.22;;;20.50;64.10;;;;;;5013159;28;20196;-67
2023/04/09 11:18:19;;;;;;;5.32;3.47;;;20.50;63.50;;;;;;5013344;28;20064;-67
2023/04/09 11:20:46;;;;;;;5.70;5.00;;;20.50;63.50;;;;;;5013057;28;20046;-67
2023/04/09 11:23:17;;;;;;;5.45;4.43;;;20.50;63.50;;;;;;5013382;28;20054;-67
2023/04/09 11:25:49;;;;;;;4.82;3.40;;;20.50;63.50;;;;;;5012640;28;20060;-67
2023/04/09 11:28:16;;;;;;;6.03;3.78;;;20.50;63.50;;;;;;5011636;28;20570;-67
2023/04/09 11:30:45;;;;;;;5.35;3.28;;;20.50;63.50;;;;;;5012996;28;20049;-67
2023/04/09 11:33:12;;;;;;;5.53;4.22;;;20.50;63.50;;;;;;5012973;28;20152;-67
2023/04/09 11:35:39;;;;;;;4.40;3.25;;;20.50;63.50;;;;;;5011871;28;20061;-67
2023/04/09 11:38:07;;;;;;;4.88;3.35;;;20.60;63.50;;;;;;5012782;28;20046;-67
2023/04/09 11:40:35;;;;;;;5.07;4.30;;;20.50;63.60;;;;;;5011638;28;20066;-67
2023/04/09 11:43:02;;;;;;;6.32;4.85;;;20.50;63.60;;;;;;5011632;28;20075;-67
2023/04/09 11:45:31;;;;;;;4.50;3.22;;;20.50;63.60;;;;;;5011329;28;20100;-67
2023/04/09 11:48:00;;;;;;;4.97;3.28;;;20.50;63.70;;;;;;5011380;28;20042;-67
2023/04/09 11:50:27;;;;;;;5.60;3.58;;;20.50;63.70;;;;;;5011060;28;20054;-67
2023/04/09 11:52:55;;;;;;;5.65;3.33;;;20.50;63.60;;;;;;5012620;28;20056;-67
2023/04/09 11:55:26;;;;;;;5.38;3.25;;;20.60;63.70;;;;;;5012094;28;20121;-67
2023/04/09 11:57:56;;;;;;;6.07;3.70;;;20.60;63.70;;;;;;5011088;28;20057;-67
2023/04/09 12:00:23;;;;;;;5.60;4.28;;;20.60;63.70;;;;;;5011796;28;20493;-67
2023/04/09 12:02:58;;;;;;;5.43;3.55;;;20.60;63.60;;;;;;5009175;28;20076;-67
2023/04/09 12:05:29;;;;;;;5.07;4.20;;;20.60;63.60;;;;;;4991593;28;20050;-67
2023/04/09 12:07:59;;;;;;;5.18;4.15;;;20.70;63.60;;;;;;4992912;28;20046;-67
2023/04/09 12:10:32;;;;;;;5.93;3.90;;;20.70;63.60;;;;;;4992721;28;20050;-68
2023/04/09 12:13:03;;;;;;;5.63;4.53;;;20.70;63.50;;;;;;4992530;28;20497;-67
2023/04/09 12:15:33;;;;;;;5.93;5.03;;;20.70;63.50;;;;;;4991060;28;20141;-68
2023/04/09 12:18:00;;;;;;;5.88;4.43;;;20.80;63.50;;;;;;5010440;28;20054;-67
2023/04/09 12:20:30;;;;;;;5.97;5.18;;;20.80;63.40;;;;;;5011392;28;20061;-67
2023/04/09 12:22:59;;;;;;;5.55;4.00;;;20.80;63.50;;;;;;5010784;28;20061;-67
2023/04/09 12:25:26;;;;;;;6.30;3.33;;;20.80;63.50;;;;;;5010600;28;20062;-67
2023/04/09 12:27:53;;;;;;;4.53;3.00;;;20.90;63.50;;;;;;5010628;28;20599;-67
2023/04/09 12:30:20;;;;;;;5.70;3.33;;;20.90;63.50;;;;;;5010712;28;20554;-67
2023/04/09 12:32:47;;;;;;;5.70;4.80;;;20.90;63.40;;;;;;5010702;28;20515;-67
2023/04/09 12:35:14;;;;;;;6.03;3.90;;;20.90;63.40;;;;;;5012015;28;20072;-67
2023/04/09 12:37:43;;;;;;;5.03;3.60;;;20.90;63.40;;;;;;5010545;28;20056;-67
2023/04/09 12:40:18;;;;;;;5.13;3.63;;;20.90;63.40;;;;;;5010279;28;20457;-67
2023/04/09 12:42:46;;;;;;;5.68;3.63;;;20.90;63.40;;;;;;5010437;28;20294;-67
2023/04/09 12:45:15;;;;;;;4.82;3.28;;;21.00;64.00;;;;;;5011825;28;20061;-67
2023/04/09 12:47:42;;;;;;;;;;;21.00;63.40;;;;;;5012467;28;20046;-67
2023/04/09 12:50:10;;;;;;;4.90;3.00;;;21.00;63.50;;;;;;5011434;28;19932;-67
2023/04/09 12:52:38;;;;;;;4.55;3.05;;;21.00;63.30;;;;;;5010235;28;20057;-67